Time;durP1;ratioP1;P1;durP2;ratioP2;P2;SDS_P1;SDS_P2;PMS_P1;PMS_P2;Temp;Humidity;BMP_temperature;BMP_pressure;BME280_temperature;BME280_humidity;BME280_pressure;Samples;Min_cycle;Max_cycle;Signal;HPM_P1;HPM_P2
2022/07/17 00:01:19;;;;;;;18.88;8.48;;;;;;;16.86;100.00;99238.06;5092173;28;20104;-92
2022/07/17 00:03:45;;;;;;;15.98;7.63;;;;;;;16.92;100.00;99248.47;5118183;28;20083;-91
2022/07/17 00:06:10;;;;;;;16.48;7.72;;;;;;;16.93;100.00;99236.19;5089797;28;20040;-90
2022/07/17 00:08:36;;;;;;;16.63;8.07;;;;;;;16.77;100.00;99244.47;5076828;28;20028;-90
2022/07/17 00:11:02;;;;;;;15.52;8.10;;;;;;;16.69;100.00;99242.03;5086506;28;20086;-91
2022/07/17 00:13:28;;;;;;;15.85;7.75;;;;;;;16.85;100.00;99245.13;5080443;28;20472;-90
2022/07/17 00:15:53;;;;;;;17.25;7.80;;;;;;;16.87;100.00;99263.53;5082196;28;20020;-91
2022/07/17 00:18:19;;;;;;;17.20;8.02;;;;;;;16.70;100.00;99256.03;5099298;28;20301;-91
2022/07/17 00:20:45;;;;;;;15.02;7.20;;;;;;;16.51;100.00;99245.13;5084239;28;20024;-91
2022/07/17 00:23:10;;;;;;;17.08;7.57;;;;;;;16.36;100.00;99247.25;5088211;28;20091;-90
2022/07/17 00:25:36;;;;;;;15.18;7.72;;;;;;;16.25;100.00;99251.91;5081418;28;20058;-91
2022/07/17 00:28:02;;;;;;;26.95;7.68;;;;;;;16.09;100.00;99248.78;5085821;28;20027;-90
2022/07/17 00:30:28;;;;;;;14.90;7.70;;;;;;;16.05;100.00;99249.75;5082407;28;20036;-91
2022/07/17 00:32:53;;;;;;;14.60;7.35;;;;;;;16.08;100.00;99238.31;5087063;28;20034;-94
2022/07/17 00:35:19;;;;;;;15.88;8.23;;;;;;;16.16;100.00;99242.47;5089439;28;20132;-91
2022/07/17 00:37:46;;;;;;;14.85;8.00;;;;;;;16.05;100.00;99244.50;5079674;28;20024;-91
2022/07/17 00:40:17;;;;;;;15.77;7.63;;;;;;;16.08;100.00;99246.19;5084169;28;20024;-91
2022/07/17 00:42:43;;;;;;;15.35;7.88;;;;;;;15.94;100.00;99246.53;5083299;28;20082;-91
2022/07/17 00:45:12;;;;;;;16.20;7.72;;;;;;;15.83;100.00;99252.88;5081832;28;20483;-91
2022/07/17 00:48:00;;;;;;;16.60;7.97;;;;;;;15.81;100.00;99251.16;5082577;28;20019;-90
2022/07/17 00:50:35;;;;;;;15.43;7.50;;;;;;;15.70;100.00;99244.38;5087054;28;20032;-92
2022/07/17 00:53:01;;;;;;;15.10;7.60;;;;;;;15.66;100.00;99249.75;5085697;28;20088;-91
2022/07/17 00:55:31;;;;;;;15.30;8.05;;;;;;;15.77;100.00;99245.09;5100661;28;20048;-91
2022/07/17 00:58:00;;;;;;;14.95;7.40;;;;;;;15.65;100.00;99232.22;5085267;28;20039;-92
2022/07/17 01:00:26;;;;;;;19.02;8.73;;;;;;;15.76;100.00;99240.72;5082377;28;20278;-91
2022/07/17 01:02:53;;;;;;;16.75;8.18;;;;;;;15.75;100.00;99227.63;5080557;28;20051;-92
2022/07/17 01:05:20;;;;;;;16.20;8.07;;;;;;;15.84;100.00;99232.72;5078000;28;20502;-92
2022/07/17 01:07:48;;;;;;;15.13;8.10;;;;;;;15.62;100.00;99232.31;5104000;28;20031;-91
2022/07/17 01:10:18;;;;;;;15.73;8.10;;;;;;;15.72;100.00;99240.84;5083877;28;20023;-92
2022/07/17 01:12:48;;;;;;;15.63;8.18;;;;;;;15.97;100.00;99236.78;5082524;28;20035;-91
2022/07/17 01:15:15;;;;;;;17.02;8.15;;;;;;;15.82;100.00;99232.75;5084160;28;20020;-91
2022/07/17 01:17:42;;;;;;;15.70;8.52;;;;;;;15.69;100.00;99226.00;5088229;28;20028;-91
2022/07/17 01:20:11;;;;;;;15.98;8.18;;;;;;;15.74;100.00;99241.66;5106055;28;20078;-91
2022/07/17 01:22:48;;;;;;;17.15;8.20;;;;;;;15.78;100.00;99217.03;5085116;28;20058;-92
2022/07/17 01:25:15;;;;;;;16.17;8.00;;;;;;;15.91;100.00;99217.63;5079847;28;20055;-91
2022/07/17 01:27:41;;;;;;;15.57;7.90;;;;;;;15.99;100.00;99213.94;5085545;28;20799;-92
2022/07/17 01:30:07;;;;;;;15.60;7.88;;;;;;;16.04;100.00;99216.44;5086886;28;20036;-91
2022/07/17 01:32:39;;;;;;;16.80;7.95;;;;;;;16.13;100.00;99232.03;5087540;28;20028;-91
2022/07/17 01:35:06;;;;;;;16.90;8.35;;;;;;;16.38;100.00;99221.75;5082360;28;20024;-91
2022/07/17 01:37:32;;;;;;;16.20;7.57;;;;;;;16.55;100.00;99228.38;5084532;28;20032;-92
2022/07/17 01:39:58;;;;;;;16.50;8.23;;;;;;;16.47;100.00;99219.78;5083555;28;20377;-91
2022/07/17 01:42:26;;;;;;;14.73;7.72;;;;;;;16.17;100.00;99220.53;5088854;28;20111;-91
2022/07/17 01:44:53;;;;;;;21.83;7.93;;;;;;;16.03;100.00;99215.59;5088886;28;20046;-91
2022/07/17 01:47:19;;;;;;;15.02;7.82;;;;;;;15.88;100.00;99221.22;5082241;28;20084;-90
2022/07/17 01:49:51;;;;;;;15.05;7.63;;;;;;;15.75;100.00;99214.47;5087380;28;20042;-92
2022/07/17 01:52:17;;;;;;;16.70;8.38;;;;;;;15.70;100.00;99217.22;5076960;28;20039;-91
2022/07/17 01:54:44;;;;;;;15.57;7.95;;;;;;;15.73;100.00;99229.41;5079752;28;20051;-91
2022/07/17 01:57:10;;;;;;;16.33;7.80;;;;;;;15.69;100.00;99216.34;5079110;28;20229;-92
2022/07/17 01:59:39;;;;;;;15.63;8.38;;;;;;;15.72;100.00;99209.28;5079125;28;20040;-92
2022/07/17 02:02:06;;;;;;;15.20;7.72;;;;;;;15.80;100.00;99207.38;5076814;28;20469;-90
2022/07/17 02:04:33;;;;;;;14.40;7.55;;;;;;;15.60;100.00;99213.06;5079363;28;20578;-92
2022/07/17 02:06:58;;;;;;;15.95;8.30;;;;;;;15.57;100.00;99216.59;5076016;28;20118;-92
2022/07/17 02:09:24;;;;;;;14.73;7.60;;;;;;;15.21;100.00;99210.38;5079922;28;20118;-91
2022/07/17 02:11:50;;;;;;;15.02;7.60;;;;;;;15.28;100.00;99215.50;5082117;28;20032;-92
2022/07/17 02:14:16;;;;;;;14.63;7.70;;;;;;;15.33;100.00;99212.75;5078634;28;20296;-92
2022/07/17 02:16:42;;;;;;;15.60;8.02;;;;;;;15.27;100.00;99210.28;5079096;28;20491;-92
2022/07/17 02:19:08;;;;;;;17.58;8.38;;;;;;;15.24;100.00;99212.94;5076241;28;20059;-91
2022/07/17 02:21:33;;;;;;;14.90;7.60;;;;;;;15.34;100.00;99204.84;5075356;28;20047;-92
2022/07/17 02:23:59;;;;;;;16.48;8.20;;;;;;;15.48;100.00;99199.28;5076180;28;20054;-92
2022/07/17 02:26:27;;;;;;;15.85;7.95;;;;;;;15.34;100.00;99189.06;5082464;28;20024;-91
2022/07/17 02:28:53;;;;;;;15.38;7.95;;;;;;;15.51;100.00;99180.81;5078425;28;20124;-91
2022/07/17 02:31:19;;;;;;;15.63;7.80;;;;;;;15.56;100.00;99178.09;5072633;28;20024;-92
2022/07/17 02:33:45;;;;;;;14.32;7.35;;;;;;;15.63;100.00;99181.41;5076723;28;20105;-91
2022/07/17 02:36:11;;;;;;;15.77;8.32;;;;;;;15.63;100.00;99173.53;5076999;28;20020;-91
2022/07/17 02:38:36;;;;;;;16.05;8.10;;;;;;;15.98;100.00;99166.63;5083714;28;20076;-91
2022/07/17 02:41:03;;;;;;;17.15;8.43;;;;;;;16.13;100.00;99178.53;5078039;28;20029;-92
2022/07/17 02:43:28;;;;;;;18.17;8.35;;;;;;;16.23;100.00;99173.88;5078958;28;20020;-91
2022/07/17 02:45:54;;;;;;;16.65;8.43;;;;;;;16.34;100.00;99175.34;5078652;28;20086;-92
2022/07/17 02:48:19;;;;;;;16.00;7.45;;;;;;;16.38;100.00;99177.00;5078498;28;20558;-91
2022/07/17 02:50:45;;;;;;;16.70;8.60;;;;;;;16.45;100.00;99188.25;5081355;28;20119;-92
2022/07/17 02:53:10;;;;;;;17.80;8.02;;;;;;;16.68;100.00;99181.50;5072380;28;20024;-91
2022/07/17 02:55:38;;;;;;;17.10;7.93;;;;;;;16.54;100.00;99200.28;5092198;28;20467;-91
2022/07/17 02:58:03;;;;;;;17.33;8.80;;;;;;;16.43;100.00;99190.03;5070646;28;20111;-93
2022/07/17 03:00:29;;;;;;;15.63;8.00;;;;;;;16.12;100.00;99195.22;5079821;28;20065;-91
2022/07/17 03:02:55;;;;;;;18.40;8.43;;;;;;;16.00;100.00;99193.75;5075942;28;20101;-91
2022/07/17 03:05:21;;;;;;;16.67;8.18;;;;;;;16.17;100.00;99195.97;5078483;28;20071;-91
2022/07/17 03:07:47;;;;;;;17.48;7.95;;;;;;;16.20;100.00;99174.84;5076468;28;20608;-91
2022/07/17 03:10:14;;;;;;;15.52;8.20;;;;;;;16.40;100.00;99150.63;5082105;28;20021;-90
2022/07/17 03:12:40;;;;;;;14.70;7.78;;;;;;;16.57;100.00;99150.19;5080031;28;20476;-91
2022/07/17 03:15:09;;;;;;;15.93;8.05;;;;;;;16.61;100.00;99151.81;5076873;28;20040;-91
2022/07/17 03:17:35;;;;;;;17.15;8.40;;;;;;;16.61;100.00;99146.56;5075334;28;20036;-91
2022/07/17 03:20:01;;;;;;;17.95;8.10;;;;;;;16.58;100.00;99158.97;5077497;28;20039;-92
2022/07/17 03:22:27;;;;;;;15.88;7.88;;;;;;;16.65;100.00;99163.16;5075363;28;20028;-91
2022/07/17 03:24:52;;;;;;;15.52;7.50;;;;;;;16.69;100.00;99160.38;5071400;28;20031;-90
2022/07/17 03:27:19;;;;;;;17.10;8.10;;;;;;;16.73;100.00;99143.59;5076992;28;20400;-91
2022/07/17 03:29:45;;;;;;;15.85;7.70;;;;;;;16.70;100.00;99129.63;5095697;28;20036;-90
2022/07/17 03:32:10;;;;;;;15.43;7.65;;;;;;;16.66;100.00;99136.78;5075525;28;20020;-91
2022/07/17 03:34:39;;;;;;;17.05;8.65;;;;;;;16.72;100.00;99154.16;5073687;28;20028;-93
2022/07/17 03:37:05;;;;;;;17.13;8.23;;;;;;;16.80;100.00;99168.00;5080608;28;20113;-90
2022/07/17 03:39:30;;;;;;;17.70;7.85;;;;;;;16.91;100.00;99156.31;5076046;28;20056;-92
2022/07/17 03:41:56;;;;;;;16.38;8.30;;;;;;;16.94;100.00;99143.94;5081072;28;20037;-91
2022/07/17 03:44:22;;;;;;;15.35;7.22;;;;;;;16.73;100.00;99138.31;5078900;28;20746;-91
2022/07/17 03:46:48;;;;;;;16.73;8.30;;;;;;;16.50;100.00;99141.56;5082392;28;20024;-91
2022/07/17 03:49:13;;;;;;;17.92;8.10;;;;;;;16.61;100.00;99146.56;5081339;28;20170;-92
2022/07/17 03:51:40;;;;;;;17.88;7.75;;;;;;;16.80;100.00;99140.78;5084407;28;20081;-92
2022/07/17 03:54:06;;;;;;;16.67;8.30;;;;;;;16.92;100.00;99129.06;5087794;28;20087;-92
2022/07/17 03:56:32;;;;;;;14.30;7.90;;;;;;;16.77;100.00;99131.22;5083623;28;20054;-91
2022/07/17 03:58:57;;;;;;;16.20;7.88;;;;;;;17.16;100.00;99136.25;5079451;28;20036;-91
2022/07/17 04:01:23;;;;;;;15.73;7.50;;;;;;;17.37;100.00;99133.88;5097730;28;20032;-91
2022/07/17 04:03:48;;;;;;;16.00;8.13;;;;;;;17.39;100.00;99134.69;5086351;28;20383;-91
2022/07/17 04:06:14;;;;;;;15.40;7.70;;;;;;;17.40;100.00;99124.09;5084464;28;20081;-91
2022/07/17 04:08:39;;;;;;;16.90;8.05;;;;;;;17.39;100.00;99143.44;5083504;28;20110;-91
2022/07/17 04:11:05;;;;;;;16.98;8.50;;;;;;;17.35;100.00;99143.59;5100747;28;20035;-91
2022/07/17 04:13:30;;;;;;;15.30;8.10;;;;;;;17.45;100.00;99142.38;5087418;28;20047;-92
2022/07/17 04:15:56;;;;;;;18.30;9.27;;;;;;;17.40;100.00;99133.78;5081497;28;20124;-93
2022/07/17 04:18:27;;;;;;;18.02;9.15;;;;;;;17.48;100.00;99134.41;5086317;28;20028;-92
2022/07/17 04:20:56;;;;;;;18.00;9.45;;;;;;;17.53;100.00;99136.88;5086675;28;20024;-92
2022/07/17 04:23:21;;;;;;;18.27;9.52;;;;;;;17.57;100.00;99144.66;5098446;28;20066;-91
2022/07/17 04:25:47;;;;;;;14.90;8.50;;;;;;;17.68;100.00;99152.22;5088884;28;20110;-91
2022/07/17 04:28:14;;;;;;;16.13;8.45;;;;;;;17.73;100.00;99154.69;5084839;28;20494;-91
2022/07/17 04:30:40;;;;;;;17.33;8.75;;;;;;;17.88;100.00;99162.16;5090285;28;20114;-91
2022/07/17 04:33:06;;;;;;;15.65;8.45;;;;;;;17.96;100.00;99145.22;5102352;28;20032;-92
2022/07/17 04:35:32;;;;;;;15.52;8.05;;;;;;;17.92;100.00;99141.81;5077377;28;20177;-93
2022/07/17 04:37:58;;;;;;;18.13;8.50;;;;;;;17.82;100.00;99135.94;5084597;28;20950;-92
2022/07/17 04:40:24;;;;;;;14.20;7.90;;;;;;;17.73;100.00;99117.78;5086547;28;20031;-91
2022/07/17 04:42:49;;;;;;;17.80;8.18;;;;;;;17.70;100.00;99109.97;5083050;28;20131;-92
2022/07/17 04:45:17;;;;;;;18.85;9.48;;;;;;;17.54;100.00;99106.97;5087713;28;20070;-92
2022/07/17 04:47:42;;;;;;;18.10;9.25;;;;;;;17.45;100.00;99120.44;5102206;28;20543;-92
2022/07/17 04:50:09;;;;;;;17.40;9.05;;;;;;;17.39;100.00;99127.63;5084343;28;20528;-93
2022/07/17 04:52:35;;;;;;;17.50;8.82;;;;;;;17.47;100.00;99145.84;5095779;28;20126;-92
2022/07/17 04:55:00;;;;;;;16.20;8.93;;;;;;;17.50;100.00;99135.22;5081163;28;20047;-92
2022/07/17 04:57:26;;;;;;;16.63;7.78;;;;;;;17.58;100.00;99134.97;5082243;28;20609;-92
2022/07/17 04:59:52;;;;;;;17.35;8.25;;;;;;;17.56;100.00;99131.50;5083775;28;20024;-92
2022/07/17 05:02:18;;;;;;;16.20;8.57;;;;;;;17.49;100.00;99116.81;5087309;28;20115;-92
2022/07/17 05:04:43;;;;;;;17.20;8.27;;;;;;;17.67;100.00;99103.00;5083194;28;20030;-92
2022/07/17 05:07:09;;;;;;;18.05;9.15;;;;;;;17.66;100.00;99100.44;5084793;28;20062;-92
2022/07/17 05:09:34;;;;;;;17.48;8.75;;;;;;;17.53;100.00;99092.06;5086158;28;20037;-92
2022/07/17 05:12:00;;;;;;;16.55;8.18;;;;;;;17.35;100.00;99120.72;5089776;28;20666;-94
2022/07/17 05:14:25;;;;;;;18.35;8.68;;;;;;;17.04;100.00;99132.19;5088587;28;20501;-93
2022/07/17 05:16:51;;;;;;;19.02;9.90;;;;;;;17.03;100.00;99148.06;5083112;28;20016;-93
2022/07/17 05:19:16;;;;;;;15.73;8.15;;;;;;;17.15;100.00;99142.44;5084794;28;20032;-92
2022/07/17 05:21:47;;;;;;;15.88;8.15;;;;;;;17.40;100.00;99158.38;5081361;28;20056;-93
2022/07/17 05:24:13;;;;;;;19.23;8.55;;;;;;;17.55;100.00;99149.13;5084662;28;20820;-92
2022/07/17 05:26:38;;;;;;;15.48;8.20;;;;;;;17.63;100.00;99151.50;5086557;28;20031;-93
2022/07/17 05:29:04;;;;;;;17.38;8.48;;;;;;;17.65;100.00;99165.53;5103110;28;20039;-92
2022/07/17 05:31:29;;;;;;;16.00;8.25;;;;;;;17.57;100.00;99160.47;5084651;28;20055;-93
2022/07/17 05:33:54;;;;;;;14.45;7.85;;;;;;;17.57;100.00;99146.44;5083780;28;20535;-92
2022/07/17 05:36:20;;;;;;;15.82;8.52;;;;;;;17.60;100.00;99121.75;5084831;28;20031;-93
2022/07/17 05:38:45;;;;;;;16.73;8.52;;;;;;;17.65;100.00;99125.97;5086770;28;20043;-93
2022/07/17 05:41:11;;;;;;;15.95;8.32;;;;;;;17.61;100.00;99144.56;5080925;28;20032;-93
2022/07/17 05:43:36;;;;;;;16.80;8.30;;;;;;;17.77;100.00;99158.13;5080165;28;20028;-92
2022/07/17 05:46:02;;;;;;;16.98;8.50;;;;;;;17.73;100.00;99149.44;5079046;28;20042;-92
2022/07/17 05:48:31;;;;;;;16.05;8.20;;;;;;;17.85;100.00;99156.09;5079426;28;20063;-92
2022/07/17 05:50:56;;;;;;;16.75;7.97;;;;;;;17.90;100.00;99149.75;5075850;28;20185;-91
2022/07/17 05:53:22;;;;;;;15.88;8.13;;;;;;;17.88;100.00;99164.78;5075704;28;20111;-93
2022/07/17 05:55:47;;;;;;;16.40;8.30;;;;;;;18.02;100.00;99172.28;5075283;28;20052;-93
2022/07/17 05:58:13;;;;;;;17.77;8.55;;;;;;;17.98;100.00;99175.94;5076646;28;20701;-92
2022/07/17 06:00:39;;;;;;;16.38;7.97;;;;;;;18.11;100.00;99167.59;5075107;28;20715;-92
2022/07/17 06:03:05;;;;;;;18.88;8.70;;;;;;;18.15;100.00;99169.22;5079110;28;20041;-93
2022/07/17 06:05:30;;;;;;;17.42;8.13;;;;;;;18.04;100.00;99169.59;5076200;28;20024;-94
2022/07/17 06:07:57;;;;;;;15.73;8.18;;;;;;;18.16;100.00;99170.94;5080355;28;20507;-92
2022/07/17 06:10:24;;;;;;;18.02;8.32;;;;;;;18.34;100.00;99170.31;5078643;28;20081;-93
2022/07/17 06:12:52;;;;;;;15.55;7.80;;;;;;;18.40;100.00;99171.91;5081748;28;20028;-93
2022/07/17 06:15:17;;;;;;;15.25;8.00;;;;;;;18.64;100.00;99164.06;5078891;28;20019;-94
2022/07/17 06:17:43;;;;;;;18.42;7.70;;;;;;;18.78;100.00;99172.34;5078215;28;20607;-93
2022/07/17 06:20:09;;;;;;;17.35;7.80;;;;;;;19.16;100.00;99174.50;5078807;28;20031;-93
2022/07/17 06:22:34;;;;;;;15.32;7.70;;;;;;;18.93;100.00;99179.72;5079624;28;20109;-92
2022/07/17 06:25:00;;;;;;;16.90;7.63;;;;;;;18.99;100.00;99169.88;5098251;28;20032;-93
2022/07/17 06:27:28;;;;;;;16.27;7.32;;;;;;;19.08;100.00;99175.66;5085603;28;20164;-93
2022/07/17 06:29:54;;;;;;;13.93;7.18;;;;;;;19.06;100.00;99169.56;5080351;28;20035;-92
2022/07/17 06:32:20;;;;;;;14.80;7.72;;;;;;;19.19;100.00;99171.75;5076253;28;20024;-93
2022/07/17 06:34:51;;;;;;;15.18;6.75;;;;;;;19.21;100.00;99172.56;5079992;28;20036;-93
2022/07/17 06:37:19;;;;;;;15.45;6.72;;;;;;;19.32;100.00;99174.78;5102373;28;20107;-92
2022/07/17 06:39:48;;;;;;;15.45;7.18;;;;;;;19.39;100.00;99179.78;5077249;28;20024;-94
2022/07/17 06:42:13;;;;;;;15.77;7.40;;;;;;;19.60;100.00;99166.66;5080182;28;20027;-94
2022/07/17 06:44:39;;;;;;;13.02;6.30;;;;;;;19.55;100.00;99173.91;5083806;28;20812;-93
2022/07/17 06:47:04;;;;;;;13.13;6.38;;;;;;;19.88;100.00;99163.78;5084541;28;20032;-94
2022/07/17 06:49:30;;;;;;;11.73;6.47;;;;;;;19.88;100.00;99173.53;5083384;28;20058;-93
2022/07/17 06:51:55;;;;;;;13.25;6.00;;;;;;;19.97;100.00;99180.22;5103731;28;20438;-92
2022/07/17 06:54:25;;;;;;;13.18;5.47;;;;;;;20.14;100.00;99183.03;5081666;28;20027;-93
2022/07/17 06:56:50;;;;;;;10.82;5.82;;;;;;;20.11;100.00;99183.16;5083513;28;20122;-93
2022/07/17 06:59:16;;;;;;;13.20;5.53;;;;;;;20.22;100.00;99188.00;5082276;28;20118;-93
2022/07/17 07:01:41;;;;;;;14.70;5.45;;;;;;;20.23;100.00;99187.94;5080031;28;20042;-93
2022/07/17 07:04:07;;;;;;;11.57;5.53;;;;;;;20.31;100.00;99190.28;5077840;28;20019;-93
2022/07/17 07:06:32;;;;;;;13.48;5.45;;;;;;;20.53;100.00;99176.09;5082800;28;20020;-92
2022/07/17 07:08:58;;;;;;;11.38;5.57;;;;;;;20.62;100.00;99176.56;5093027;28;20797;-94
2022/07/17 07:11:24;;;;;;;11.98;5.07;;;;;;;20.89;100.00;99170.13;5085264;28;20491;-94
2022/07/17 07:13:50;;;;;;;11.25;5.10;;;;;;;21.00;100.00;99164.34;5086163;28;20483;-93
2022/07/17 07:16:16;;;;;;;12.48;4.60;;;;;;;21.17;100.00;99167.13;5084759;28;20043;-93
2022/07/17 07:18:41;;;;;;;10.57;4.20;;;;;;;21.12;100.00;99158.50;5089764;28;20020;-94
2022/07/17 07:21:07;;;;;;;9.80;4.07;;;;;;;21.35;100.00;99160.09;5091982;28;20020;-93
2022/07/17 07:23:34;;;;;;;8.93;4.28;;;;;;;21.41;100.00;99150.97;5086997;28;20023;-92
2022/07/17 07:25:59;;;;;;;13.45;4.10;;;;;;;21.52;100.00;99151.34;5085518;28;20024;-94
2022/07/17 07:28:25;;;;;;;11.20;4.68;;;;;;;21.51;100.00;99152.25;5091182;28;20548;-94
2022/07/17 07:30:51;;;;;;;9.23;4.10;;;;;;;21.62;100.00;99146.47;5090496;28;20045;-94
2022/07/17 07:33:16;;;;;;;11.48;4.60;;;;;;;21.76;100.00;99159.91;5086496;28;20348;-93
2022/07/17 07:35:43;;;;;;;10.40;4.32;;;;;;;21.56;100.00;99168.84;5086794;28;20021;-93
2022/07/17 07:38:09;;;;;;;10.70;4.47;;;;;;;21.73;100.00;99170.69;5090888;28;20065;-93
2022/07/17 07:40:35;;;;;;;12.85;4.60;;;;;;;21.80;100.00;99171.25;5085863;28;20023;-93
2022/07/17 07:43:01;;;;;;;10.35;4.28;;;;;;;22.10;100.00;99170.69;5082320;28;20399;-93
2022/07/17 07:45:27;;;;;;;9.35;4.55;;;;;;;22.08;100.00;99169.91;5086424;28;20089;-93
2022/07/17 07:47:54;;;;;;;11.18;4.70;;;;;;;21.95;100.00;99172.31;5088138;28;20032;-93
2022/07/17 07:50:24;;;;;;;12.63;4.50;;;;;;;21.93;100.00;99158.25;5081432;28;20035;-93
2022/07/17 07:52:51;;;;;;;11.13;4.78;;;;;;;22.13;100.00;99155.44;5081552;28;20073;-94
2022/07/17 07:55:17;;;;;;;11.10;5.00;;;;;;;22.27;100.00;99159.22;5088254;28;20031;-94
2022/07/17 07:57:43;;;;;;;10.38;4.13;;;;;;;22.21;100.00;99157.69;5089583;28;20055;-91
2022/07/17 08:00:11;;;;;;;9.30;4.32;;;;;;;22.24;100.00;99148.72;5090443;28;20054;-94
2022/07/17 08:02:39;;;;;;;10.88;4.75;;;;;;;22.20;100.00;99153.34;5106997;28;20040;-93
2022/07/17 08:05:05;;;;;;;10.93;4.63;;;;;;;22.05;100.00;99146.16;5102442;28;20455;-93
2022/07/17 08:07:31;;;;;;;9.15;4.35;;;;;;;22.12;100.00;99148.41;5080804;28;20539;-93
2022/07/17 08:09:57;;;;;;;10.98;4.60;;;;;;;22.07;100.00;99147.78;5079692;28;20446;-94
2022/07/17 08:12:24;;;;;;;10.45;4.68;;;;;;;22.02;97.08;99143.63;5084869;28;20808;-93
2022/07/17 08:14:50;;;;;;;10.93;4.72;;;;;;;22.19;99.34;99137.50;5083969;28;20028;-93
2022/07/17 08:17:17;;;;;;;9.52;4.68;;;;;;;22.42;99.94;99139.88;5078657;28;20461;-90
2022/07/17 08:19:45;;;;;;;11.02;4.53;;;;;;;22.64;100.00;99147.59;5076897;28;20488;-91
2022/07/17 08:22:12;;;;;;;9.55;4.18;;;;;;;22.64;95.39;99136.06;5078967;28;20030;-91
2022/07/17 08:24:37;;;;;;;11.25;4.82;;;;;;;23.12;93.72;99146.88;5081098;28;20368;-89
2022/07/17 08:27:03;;;;;;;10.30;4.47;;;;;;;23.26;93.41;99154.94;5095417;28;20039;-90
2022/07/17 08:29:29;;;;;;;8.80;4.00;;;;;;;23.39;95.60;99159.59;5075306;28;20082;-90
2022/07/17 08:31:55;;;;;;;10.85;3.95;;;;;;;23.51;86.50;99158.91;5083635;28;20040;-92
2022/07/17 08:34:21;;;;;;;10.88;4.30;;;;;;;23.39;84.52;99157.78;5081180;28;20035;-93
2022/07/17 08:36:47;;;;;;;9.98;4.35;;;;;;;23.24;81.84;99150.63;5082774;28;20036;-93
2022/07/17 08:39:20;;;;;;;11.65;3.92;;;;;;;23.66;86.96;99152.72;5082106;28;20065;-95
2022/07/17 08:41:46;;;;;;;9.07;4.13;;;;;;;23.83;82.40;99156.22;5110434;28;20498;-95
2022/07/17 08:44:12;;;;;;;10.00;4.68;;;;;;;23.83;82.34;99156.22;5084893;28;20020;-95
2022/07/17 08:46:38;;;;;;;9.40;4.00;;;;;;;23.61;80.69;99160.09;5089908;28;20036;-95
2022/07/17 08:49:06;;;;;;;10.05;3.97;;;;;;;23.69;78.79;99149.88;5084643;28;20119;-95
2022/07/17 08:51:33;;;;;;;8.30;4.03;;;;;;;23.94;84.47;99152.94;5087684;28;20034;-96
2022/07/17 08:54:23;;;;;;;9.07;4.30;;;;;;;23.99;82.74;99150.88;5089097;28;20067;-96
2022/07/17 08:56:48;;;;;;;9.43;4.40;;;;;;;24.29;82.07;99150.03;5084720;28;20044;-95
2022/07/17 08:59:14;;;;;;;9.20;4.18;;;;;;;24.45;81.40;99156.16;5087713;28;20049;-96
2022/07/17 09:01:39;;;;;;;12.35;4.22;;;;;;;24.27;82.98;99158.09;5089276;28;20031;-93
2022/07/17 09:04:06;;;;;;;9.05;3.80;;;;;;;24.31;82.37;99159.63;5103524;28;20024;-96
2022/07/17 09:06:38;;;;;;;7.75;3.42;;;;;;;24.55;84.69;99161.78;5084854;28;20080;-96
2022/07/17 09:09:30;;;;;;;8.25;3.42;;;;;;;25.00;76.48;99162.63;5089340;28;20053;-96
2022/07/17 09:11:58;;;;;;;7.72;3.15;;;;;;;25.19;70.19;99164.13;5083231;28;20110;-96
2022/07/17 09:14:38;;;;;;;9.43;3.85;;;;;;;25.02;70.92;99167.88;5089172;28;20028;-96
2022/07/17 09:17:06;;;;;;;8.88;4.00;;;;;;;25.08;72.52;99156.81;5110076;27;20167;-96
2022/07/17 09:19:37;;;;;;;8.30;3.65;;;;;;;30.38;65.29;99166.41;5082417;28;20065;-96
2022/07/17 09:22:24;;;;;;;9.68;4.13;;;;;;;23.86;78.04;99170.19;5094995;28;20020;-96
2022/07/17 09:24:54;;;;;;;9.55;4.03;;;;;;;24.42;75.96;99160.81;5083213;28;20063;-96
2022/07/17 09:27:23;;;;;;;7.85;3.60;;;;;;;24.76;77.17;99167.69;5082749;28;20062;-96
2022/07/17 09:30:02;;;;;;;9.57;3.75;;;;;;;24.67;79.05;99163.75;5089330;28;20031;-96
2022/07/17 09:32:33;;;;;;;7.78;3.40;;;;;;;24.52;72.42;99167.31;5090674;28;20089;-96
2022/07/17 09:35:00;;;;;;;8.70;3.75;;;;;;;24.39;70.73;99164.53;5094607;28;20032;-96
2022/07/17 09:37:27;;;;;;;8.48;3.70;;;;;;;24.90;75.22;99150.81;5091298;28;20476;-96
2022/07/17 09:39:56;;;;;;;9.10;3.70;;;;;;;24.94;72.09;99159.47;5105546;28;20012;-96
2022/07/17 09:42:26;;;;;;;7.85;3.72;;;;;;;25.44;76.91;99149.25;5090134;28;20122;-96
2022/07/17 09:45:06;;;;;;;9.35;4.10;;;;;;;25.63;72.89;99149.78;5083932;28;20181;-96
2022/07/17 09:47:35;;;;;;;10.77;4.28;;;;;;;25.24;70.96;99153.19;5088759;28;20131;-96
2022/07/17 09:50:03;;;;;;;9.57;4.43;;;;;;;25.84;73.18;99142.16;5084904;28;20032;-95
2022/07/17 09:52:31;;;;;;;9.68;4.03;;;;;;;25.78;71.38;99142.59;5105106;28;20023;-96
2022/07/17 09:54:58;;;;;;;9.18;4.65;;;;;;;25.94;70.55;99136.22;5083710;28;20100;-96
2022/07/17 09:57:32;;;;;;;10.02;4.15;;;;;;;26.01;77.66;99125.06;5088750;28;20133;-96
2022/07/17 10:00:07;;;;;;;9.13;4.18;;;;;;;26.11;73.45;99135.13;5084543;28;20093;-96
2022/07/17 10:02:34;;;;;;;9.27;4.30;;;;;;;26.17;71.67;99138.25;5082956;28;20024;-96
2022/07/17 10:05:00;;;;;;;9.25;4.30;;;;;;;26.01;69.86;99133.09;5086119;28;20019;-96
2022/07/17 10:07:26;;;;;;;9.25;4.50;;;;;;;26.03;73.04;99127.63;5102495;28;20046;-96
2022/07/17 10:09:51;;;;;;;9.15;4.47;;;;;;;25.80;73.83;99135.31;5084380;28;20024;-96
2022/07/17 10:12:19;;;;;;;10.90;4.80;;;;;;;25.93;76.54;99132.72;5086491;28;20311;-96
2022/07/17 10:14:47;;;;;;;9.63;4.57;;;;;;;26.12;75.96;99129.66;5084211;28;20038;-96
2022/07/17 10:17:20;;;;;;;10.32;4.75;;;;;;;26.14;73.96;99125.09;5078856;28;20055;-96
2022/07/17 10:19:49;;;;;;;8.77;4.03;;;;;;;26.38;74.58;99119.88;5088834;28;20038;-96
2022/07/17 10:22:18;;;;;;;8.80;4.60;;;;;;;26.44;73.58;99118.59;5108715;28;20093;-96
2022/07/17 10:24:55;;;;;;;9.52;4.57;;;;;;;26.35;65.38;99127.25;5085086;28;20486;-96
2022/07/17 10:27:28;;;;;;;9.65;4.40;;;;;;;26.23;68.77;99127.16;5092878;28;20054;-96
2022/07/17 10:30:10;;;;;;;9.13;4.75;;;;;;;26.49;70.17;99121.81;5089875;28;20035;-96
2022/07/17 10:32:37;;;;;;;9.82;4.47;;;;;;;26.51;70.46;99119.88;5080045;28;20483;-96
2022/07/17 10:35:12;;;;;;;9.07;4.53;;;;;;;26.45;66.17;99135.50;5082505;28;20092;-95
2022/07/17 10:37:42;;;;;;;9.65;4.70;;;;;;;27.92;62.32;99137.50;5092582;28;20078;-96
2022/07/17 10:40:16;;;;;;;9.63;4.50;;;;;;;26.50;71.82;99131.56;5086447;28;20516;-96
2022/07/17 10:43:01;;;;;;;10.40;4.85;;;;;;;26.14;72.16;99135.78;5089593;28;20038;-96
2022/07/17 10:45:44;;;;;;;10.48;4.88;;;;;;;26.27;74.26;99133.13;5085090;28;20339;-94
2022/07/17 10:48:22;;;;;;;10.50;5.00;;;;;;;26.44;82.35;99118.59;5083654;28;20120;-94
2022/07/17 10:50:57;;;;;;;11.90;4.70;;;;;;;26.71;77.85;99125.72;5101015;28;20388;-95
2022/07/17 10:53:26;;;;;;;10.60;4.70;;;;;;;26.70;76.71;99124.00;5085530;28;20061;-94
2022/07/17 10:56:03;;;;;;;9.95;4.18;;;;;;;26.38;75.69;99135.06;5099152;28;20047;-94
2022/07/17 10:58:34;;;;;;;10.55;4.63;;;;;;;26.34;79.92;99139.75;5078406;28;20138;-95
2022/07/17 11:01:04;;;;;;;9.10;4.72;;;;;;;26.57;78.57;99134.66;5077255;28;20038;-95
2022/07/17 11:03:39;;;;;;;9.10;4.25;;;;;;;26.33;79.32;99129.16;5085618;28;20088;-96
2022/07/17 11:06:08;;;;;;;9.60;4.97;;;;;;;26.88;77.73;99130.72;5079268;28;20048;-94
2022/07/17 11:08:49;;;;;;;10.80;4.72;;;;;;;26.47;80.15;99133.56;5077070;28;20110;-94
2022/07/17 11:11:48;;;;;;;12.70;4.78;;;;;;;26.47;77.47;99134.44;5075783;28;20027;-95
2022/07/17 11:14:16;;;;;;;9.70;4.65;;;;;;;27.08;82.51;99131.13;5080423;28;20024;-95
2022/07/17 11:17:01;;;;;;;10.25;4.80;;;;;;;26.72;78.98;99135.44;5079545;28;20067;-95
2022/07/17 11:19:39;;;;;;;10.10;4.47;;;;;;;26.22;77.88;99121.88;5094975;28;20303;-94
2022/07/17 11:22:09;;;;;;;9.35;4.85;;;;;;;26.28;78.81;99124.16;5079054;28;20024;-96
2022/07/17 11:24:39;;;;;;;9.93;5.22;;;;;;;26.29;84.74;99111.63;5079292;28;20017;-96